createdAt,value
2022-12-04T00:00:16.941Z,14.88
2022-12-04T00:06:20.694Z,13.63
2022-12-04T00:12:23.247Z,15.32
2022-12-04T00:18:25.887Z,14.10
2022-12-04T00:24:28.284Z,12.18
2022-12-04T00:30:30.672Z,13.20
2022-12-04T00:42:35.087Z,11.10
2022-12-04T00:48:37.535Z,12.02
2022-12-04T01:00:42.845Z,8.70
2022-12-04T01:06:46.638Z,8.30
2022-12-04T01:12:53.338Z,8.55
2022-12-04T01:18:56.435Z,8.13
2022-12-04T01:24:58.873Z,9.15
2022-12-04T01:31:06.290Z,7.57
2022-12-04T01:37:09.482Z,7.60
2022-12-04T01:43:13.132Z,7.25
2022-12-04T01:49:23.936Z,6.20
2022-12-04T01:55:26.521Z,7.45
2022-12-04T02:07:32.548Z,7.80
2022-12-04T02:13:49.912Z,7.95
2022-12-04T02:20:07.568Z,4.75
2022-12-04T02:26:33.970Z,5.93
2022-12-04T02:32:42.147Z,5.65
2022-12-04T02:38:52.411Z,5.95
2022-12-04T02:45:00.517Z,5.22
2022-12-04T02:51:06.255Z,5.78
2022-12-04T02:57:13.977Z,5.03
2022-12-04T03:03:21.918Z,6.22
2022-12-04T03:09:34.593Z,6.72
2022-12-04T03:16:02.394Z,5.65
2022-12-04T03:22:10.147Z,6.32
2022-12-04T03:28:22.598Z,6.20
2022-12-04T03:35:03.473Z,6.68
2022-12-04T03:41:24.281Z,5.97
2022-12-04T03:47:40.574Z,5.10
2022-12-04T03:53:51.821Z,6.97
2022-12-04T04:00:02.853Z,6.00
2022-12-04T04:06:16.264Z,6.93
2022-12-04T04:12:22.691Z,6.53
2022-12-04T04:18:44.317Z,5.90
2022-12-04T04:24:52.531Z,6.22
2022-12-04T04:30:59.108Z,6.72
2022-12-04T04:37:04.355Z,8.52
2022-12-04T04:43:28.316Z,6.95
2022-12-04T04:49:34.316Z,7.93
2022-12-04T04:55:37.187Z,7.32
2022-12-04T05:01:41.820Z,8.43
2022-12-04T05:07:44.262Z,6.13
2022-12-04T05:13:46.858Z,7.45
2022-12-04T05:26:05.615Z,9.48
2022-12-04T05:32:07.914Z,7.55
2022-12-04T05:38:10.730Z,9.13
2022-12-04T05:44:13.336Z,8.68
2022-12-04T05:50:15.776Z,9.38
2022-12-04T05:56:17.856Z,8.25
2022-12-04T06:02:20.190Z,8.70
2022-12-04T06:08:22.514Z,9.98
2022-12-04T06:14:24.855Z,8.05
2022-12-04T06:20:27.035Z,11.10
2022-12-04T06:26:29.712Z,7.82
2022-12-04T06:32:31.984Z,8.93
2022-12-04T06:38:35.133Z,10.85
2022-12-04T06:44:40.603Z,10.38
2022-12-04T06:50:45.120Z,9.73
2022-12-04T06:56:49.309Z,10.98
2022-12-04T07:02:51.654Z,11.82
2022-12-04T07:09:02.445Z,12.57
2022-12-04T07:15:04.936Z,10.48
2022-12-04T07:21:09.306Z,8.20
2022-12-04T07:27:11.588Z,8.63
2022-12-04T07:33:14.034Z,8.73
2022-12-04T07:39:16.472Z,8.15
2022-12-04T07:51:24.081Z,9.63
2022-12-04T07:57:27.998Z,10.73
2022-12-04T08:03:30.437Z,10.90
2022-12-04T08:09:33.178Z,9.57
2022-12-04T08:15:35.930Z,9.10
2022-12-04T08:21:38.417Z,9.48
2022-12-04T08:27:47.159Z,9.05
2022-12-04T08:33:51.693Z,9.93
2022-12-04T08:39:54.584Z,9.15
2022-12-04T08:46:04.386Z,10.35
2022-12-04T08:52:07.230Z,8.52
2022-12-04T08:58:09.763Z,8.65
2022-12-04T09:04:29.196Z,7.38
2022-12-04T09:10:31.428Z,6.60
2022-12-04T09:16:33.909Z,7.22
2022-12-04T09:29:01.615Z,8.18
2022-12-04T09:35:05.004Z,7.78
2022-12-04T09:41:45.093Z,6.60
2022-12-04T09:47:50.655Z,6.65
2022-12-04T09:54:02.576Z,8.27
2022-12-04T10:00:07.237Z,7.93
2022-12-04T10:06:33.842Z,7.53
2022-12-04T10:12:56.315Z,8.73
2022-12-04T10:18:59.008Z,6.77
2022-12-04T10:25:08.995Z,6.95
2022-12-04T10:31:14.520Z,7.68
2022-12-04T10:37:17.346Z,8.25
2022-12-04T10:43:41.863Z,8.60
2022-12-04T10:49:44.315Z,8.40
2022-12-04T10:55:46.652Z,6.93
2022-12-04T11:01:49.672Z,8.38
2022-12-04T11:07:52.795Z,7.32
2022-12-04T11:14:22.732Z,8.68
2022-12-04T11:20:27.502Z,11.85
2022-12-04T11:26:35.648Z,9.35
2022-12-04T11:32:38.992Z,8.32
2022-12-04T11:38:41.227Z,7.97
2022-12-04T11:44:56.686Z,9.40
2022-12-04T11:51:35.182Z,9.48
2022-12-04T11:58:00.502Z,10.40
2022-12-04T12:04:21.601Z,8.27
2022-12-04T12:10:51.411Z,8.88
2022-12-04T12:16:59.773Z,9.93
2022-12-04T12:23:26.972Z,9.45
2022-12-04T12:29:56.896Z,10.93
2022-12-04T12:36:08.605Z,10.55
2022-12-04T12:42:21.716Z,12.15
2022-12-04T12:48:44.264Z,9.13
2022-12-04T12:54:53.855Z,8.27
2022-12-04T13:01:06.231Z,9.23
2022-12-04T13:07:17.714Z,9.32
2022-12-04T13:13:29.085Z,8.98
2022-12-04T13:19:44.813Z,9.55
2022-12-04T13:26:04.170Z,10.32
2022-12-04T13:32:09.620Z,10.20
2022-12-04T13:38:52.558Z,11.05
2022-12-04T13:45:00.328Z,11.73
2022-12-04T13:51:22.287Z,12.15
2022-12-04T13:57:27.930Z,10.38
2022-12-04T14:03:37.607Z,11.13
2022-12-04T14:09:42.878Z,11.82
2022-12-04T14:15:45.734Z,13.43
2022-12-04T14:21:47.914Z,14.48
2022-12-04T14:27:52.665Z,22.80
2022-12-04T14:34:01.861Z,17.30
2022-12-04T14:40:07.905Z,17.17
2022-12-04T14:46:32.832Z,17.33
2022-12-04T14:52:45.775Z,16.65
2022-12-04T15:04:51.195Z,16.38
2022-12-04T15:11:12.444Z,15.93
2022-12-04T15:17:16.481Z,22.15
2022-12-04T15:23:50.462Z,29.65
2022-12-04T15:29:56.842Z,28.15
2022-12-04T15:36:08.624Z,24.08
2022-12-04T15:42:18.898Z,11.90
2022-12-04T15:48:31.344Z,14.88
2022-12-04T15:54:34.096Z,16.38
2022-12-04T16:00:39.778Z,17.20
2022-12-04T16:06:48.012Z,13.32
2022-12-04T16:12:54.694Z,13.27
2022-12-04T16:18:56.959Z,11.70
2022-12-04T16:24:59.577Z,10.80
2022-12-04T16:31:02.425Z,18.70
2022-12-04T16:43:15.196Z,11.68
2022-12-04T16:49:17.505Z,13.93
2022-12-04T16:55:35.284Z,12.93
2022-12-04T17:01:42.923Z,11.73
2022-12-04T17:07:45.581Z,11.93
2022-12-04T17:19:50.028Z,13.85
2022-12-04T17:25:52.296Z,10.98
2022-12-04T17:31:55.493Z,12.45
2022-12-04T17:38:03.901Z,10.88
2022-12-04T17:44:08.201Z,11.40
2022-12-04T17:50:10.740Z,10.05
2022-12-04T17:56:18.946Z,11.00
2022-12-04T18:02:21.585Z,9.52
2022-12-04T18:14:26.735Z,10.07
2022-12-04T18:20:29.145Z,11.43
2022-12-04T18:26:39.968Z,9.38
2022-12-04T18:32:42.120Z,10.27
2022-12-04T18:38:46.653Z,9.20
2022-12-04T18:44:49.070Z,10.75
2022-12-04T18:50:51.401Z,10.15
2022-12-04T18:56:53.695Z,9.98
2022-12-04T19:02:56.681Z,9.75
2022-12-04T19:09:01.149Z,9.80
2022-12-04T19:15:03.533Z,9.70
2022-12-04T19:21:07.438Z,8.75
2022-12-04T19:27:12.781Z,8.05
2022-12-04T19:33:15.046Z,8.15
2022-12-04T19:39:17.195Z,6.45
2022-12-04T19:45:19.792Z,7.13
2022-12-04T19:57:24.821Z,6.13
2022-12-04T20:09:29.525Z,6.22
2022-12-04T20:15:35.168Z,6.43
2022-12-04T20:21:37.478Z,5.68
2022-12-04T20:27:39.786Z,6.05
2022-12-04T20:33:47.078Z,6.65
2022-12-04T20:39:49.608Z,5.68
2022-12-04T20:45:52.106Z,5.75
2022-12-04T20:51:54.341Z,6.18
2022-12-04T20:57:58.019Z,5.93
2022-12-04T21:04:01.232Z,6.63
2022-12-04T21:10:04.495Z,6.10
2022-12-04T21:16:07.356Z,5.30
2022-12-04T21:22:09.795Z,5.63
2022-12-04T21:28:12.185Z,6.80
2022-12-04T21:34:16.487Z,5.65
2022-12-04T21:40:18.739Z,7.50
2022-12-04T21:46:21.071Z,6.05
2022-12-04T21:52:23.465Z,5.95
2022-12-04T21:58:26.451Z,4.85
2022-12-04T22:04:28.893Z,5.97
2022-12-04T22:10:31.040Z,4.90
2022-12-04T22:16:38.350Z,5.43
2022-12-04T22:22:43.839Z,5.72
2022-12-04T22:28:46.689Z,7.65
2022-12-04T22:34:49.450Z,5.80
2022-12-04T22:40:51.647Z,4.82
2022-12-04T22:46:53.840Z,5.88
2022-12-04T22:52:56.027Z,6.13
2022-12-04T22:58:59.389Z,6.13
2022-12-04T23:05:01.828Z,5.75
2022-12-04T23:11:10.727Z,5.03
2022-12-04T23:17:12.835Z,4.93
2022-12-04T23:23:14.898Z,4.78
2022-12-04T23:29:45.009Z,6.88
2022-12-04T23:35:39.259Z,6.90
2022-12-04T23:41:42.163Z,6.95
2022-12-04T23:47:44.517Z,9.38
2022-12-04T23:53:47.547Z,7.65
2022-12-04T23:59:49.683Z,7.28
